createdAt,value
2022-11-17T00:00:42.941Z,0.80
2022-11-17T00:03:15.924Z,0.80
2022-11-17T00:05:44.021Z,0.70
2022-11-17T00:08:11.116Z,-0.70
2022-11-17T00:10:38.162Z,0.70
2022-11-17T00:13:25.164Z,0.70
2022-11-17T00:15:52.284Z,0.70
2022-11-17T00:18:39.117Z,0.70
2022-11-17T00:21:23.888Z,0.70
2022-11-17T00:23:51.153Z,0.70
2022-11-17T00:26:58.939Z,0.70
2022-11-17T00:29:26.006Z,0.70
2022-11-17T00:32:12.891Z,0.70
2022-11-17T00:34:40.253Z,0.70
2022-11-17T00:37:08.703Z,0.00
2022-11-17T00:39:35.964Z,0.70
2022-11-17T00:42:03.000Z,0.70
2022-11-17T00:44:31.962Z,0.70
2022-11-17T00:46:59.048Z,0.70
2022-11-17T00:49:26.521Z,0.70
2022-11-17T00:51:55.612Z,0.70
2022-11-17T00:54:22.963Z,0.70
2022-11-17T00:56:50.364Z,0.70
2022-11-17T00:59:17.467Z,0.70
2022-11-17T01:01:44.820Z,0.80
2022-11-17T01:04:13.826Z,0.70
2022-11-17T01:06:43.406Z,0.80
2022-11-17T01:09:32.366Z,0.80
2022-11-17T01:11:59.400Z,0.80
2022-11-17T01:14:29.279Z,0.80
2022-11-17T01:16:56.643Z,0.80
2022-11-17T01:19:24.423Z,0.80
2022-11-17T01:21:51.819Z,0.80
2022-11-17T01:24:19.047Z,0.80
2022-11-17T01:26:46.439Z,0.80
2022-11-17T01:29:15.274Z,0.80
2022-11-17T01:31:44.425Z,-0.50
2022-11-17T01:34:12.346Z,0.80
2022-11-17T01:37:01.936Z,0.80
2022-11-17T01:39:30.385Z,0.80
2022-11-17T01:41:58.308Z,0.80
2022-11-17T01:45:05.068Z,0.80
2022-11-17T01:47:54.710Z,0.80
2022-11-17T01:50:43.634Z,0.80
2022-11-17T01:53:15.598Z,0.80
2022-11-17T01:55:48.223Z,0.80
2022-11-17T01:58:20.492Z,0.80
2022-11-17T02:00:47.948Z,0.70
2022-11-17T02:03:15.072Z,0.80
2022-11-17T02:06:06.113Z,0.70
2022-11-17T02:08:34.615Z,0.70
2022-11-17T02:11:04.306Z,0.70
2022-11-17T02:13:31.902Z,0.70
2022-11-17T02:15:59.075Z,0.60
2022-11-17T02:18:26.417Z,0.60
2022-11-17T02:21:33.315Z,0.60
2022-11-17T02:24:27.326Z,0.60
2022-11-17T02:27:34.022Z,0.70
2022-11-17T02:30:05.873Z,-0.70
2022-11-17T02:33:12.769Z,0.60
2022-11-17T02:36:04.805Z,0.60
2022-11-17T02:39:11.577Z,0.60
2022-11-17T02:42:07.059Z,0.60
2022-11-17T02:45:00.711Z,0.60
2022-11-17T02:47:30.379Z,0.60
2022-11-17T02:50:02.105Z,0.60
2022-11-17T02:52:30.783Z,0.60
2022-11-17T02:55:02.891Z,0.60
2022-11-17T02:57:50.873Z,0.60
2022-11-17T03:00:19.498Z,1.50
2022-11-17T03:03:26.242Z,0.50
2022-11-17T03:06:33.010Z,0.60
2022-11-17T03:09:33.815Z,0.60
2022-11-17T03:12:09.651Z,0.60
2022-11-17T03:15:09.342Z,0.60
2022-11-17T03:17:49.084Z,0.60
2022-11-17T03:20:22.559Z,0.50
2022-11-17T03:22:57.985Z,0.60
2022-11-17T03:25:27.483Z,1.70
2022-11-17T03:28:00.754Z,0.50
2022-11-17T03:30:33.296Z,0.50
2022-11-17T03:33:10.447Z,0.50
2022-11-17T03:35:43.953Z,-1.00
2022-11-17T03:38:15.987Z,-0.80
2022-11-17T03:40:46.927Z,0.50
2022-11-17T03:43:17.516Z,0.50
2022-11-17T03:45:50.036Z,0.50
2022-11-17T03:48:57.156Z,0.50
2022-11-17T03:51:27.166Z,0.50
2022-11-17T03:53:54.861Z,0.50
2022-11-17T03:56:48.921Z,0.50
2022-11-17T03:59:39.672Z,0.50
2022-11-17T04:02:06.772Z,0.50
2022-11-17T04:04:53.689Z,0.50
2022-11-17T04:07:20.792Z,0.50
2022-11-17T04:09:47.990Z,0.40
2022-11-17T04:12:34.920Z,0.40
2022-11-17T04:15:21.951Z,0.40
2022-11-17T04:17:49.191Z,0.40
2022-11-17T04:20:16.527Z,0.40
2022-11-17T04:22:43.607Z,0.50
2022-11-17T04:25:30.873Z,0.40
2022-11-17T04:28:17.761Z,-1.10
2022-11-17T04:30:44.810Z,0.40
2022-11-17T04:33:11.913Z,0.40
2022-11-17T04:35:38.959Z,0.40
2022-11-17T04:38:05.977Z,0.30
2022-11-17T04:40:52.866Z,0.40
2022-11-17T04:43:19.977Z,0.40
2022-11-17T04:45:47.033Z,0.40
2022-11-17T04:48:14.178Z,0.40
2022-11-17T04:50:41.580Z,0.30
2022-11-17T04:53:08.650Z,0.30
2022-11-17T04:55:35.705Z,0.30
2022-11-17T04:58:02.735Z,0.30
2022-11-17T05:00:29.748Z,0.40
2022-11-17T05:02:56.820Z,1.40
2022-11-17T05:05:23.881Z,0.30
2022-11-17T05:07:50.980Z,0.40
2022-11-17T05:10:37.931Z,0.40
2022-11-17T05:13:25.262Z,0.40
2022-11-17T05:16:17.301Z,0.40
2022-11-17T05:18:44.534Z,0.40
2022-11-17T05:21:11.921Z,0.40
2022-11-17T05:23:54.471Z,0.40
2022-11-17T05:26:24.250Z,0.40
2022-11-17T05:28:51.846Z,0.40
2022-11-17T05:31:19.263Z,0.40
2022-11-17T05:33:46.497Z,0.40
2022-11-17T05:36:13.975Z,0.40
2022-11-17T05:38:41.425Z,0.40
2022-11-17T05:41:08.776Z,0.30
2022-11-17T05:43:36.220Z,0.20
2022-11-17T05:46:03.849Z,0.20
2022-11-17T05:48:31.120Z,0.20
2022-11-17T05:50:58.214Z,0.10
2022-11-17T05:53:25.604Z,0.10
2022-11-17T05:56:28.367Z,0.10
2022-11-17T05:59:10.593Z,0.10
2022-11-17T06:01:40.468Z,-1.50
2022-11-17T06:04:08.643Z,0.10
2022-11-17T06:06:37.497Z,0.10
2022-11-17T06:09:04.898Z,0.10
2022-11-17T06:11:31.973Z,0.10
2022-11-17T06:13:59.075Z,0.10
2022-11-17T06:16:34.526Z,0.10
2022-11-17T06:19:08.074Z,0.00
2022-11-17T06:22:04.459Z,0.00
2022-11-17T06:24:23.968Z,0.00
2022-11-17T06:26:51.273Z,0.00
2022-11-17T06:29:18.841Z,0.00
2022-11-17T06:31:46.555Z,0.00
2022-11-17T06:34:13.855Z,0.00
2022-11-17T06:36:41.030Z,0.00
2022-11-17T06:39:08.129Z,0.00
2022-11-17T06:41:36.421Z,0.10
2022-11-17T06:44:03.406Z,0.00
2022-11-17T06:46:38.102Z,0.10
2022-11-17T06:49:07.625Z,0.10
2022-11-17T06:51:37.255Z,0.10
2022-11-17T06:57:31.956Z,0.10
2022-11-17T06:59:59.023Z,0.10
2022-11-17T07:02:26.184Z,1.10
2022-11-17T07:04:53.329Z,0.10
2022-11-17T07:07:20.525Z,0.10
2022-11-17T07:09:47.656Z,0.10
2022-11-17T07:12:14.707Z,0.10
2022-11-17T07:14:42.050Z,0.10
2022-11-17T07:17:09.126Z,0.10
2022-11-17T07:19:36.746Z,0.10
2022-11-17T07:22:05.199Z,0.00
2022-11-17T07:24:32.284Z,0.10
2022-11-17T07:26:59.470Z,0.10
2022-11-17T07:29:26.654Z,0.10
2022-11-17T07:31:53.820Z,0.10
2022-11-17T07:34:21.048Z,0.10
2022-11-17T07:36:48.182Z,0.10
2022-11-17T07:39:21.064Z,0.00
2022-11-17T07:41:49.301Z,-0.80
2022-11-17T07:44:16.567Z,0.00
2022-11-17T07:46:43.755Z,0.00
2022-11-17T07:49:10.892Z,0.10
2022-11-17T07:51:38.028Z,0.00
2022-11-17T07:54:06.342Z,0.10
2022-11-17T07:56:34.840Z,-0.70
2022-11-17T07:59:01.955Z,0.10
2022-11-17T08:01:29.974Z,0.10
2022-11-17T08:03:57.992Z,0.10
2022-11-17T08:06:25.302Z,0.20
2022-11-17T08:08:53.775Z,-0.80
2022-11-17T08:11:21.302Z,0.20
2022-11-17T08:13:50.154Z,0.10
2022-11-17T08:16:17.466Z,0.10
2022-11-17T08:18:50.539Z,0.20
2022-11-17T08:21:19.488Z,0.20
2022-11-17T08:23:52.193Z,0.30
2022-11-17T08:26:21.064Z,0.30
2022-11-17T08:28:52.163Z,0.30
2022-11-17T08:31:22.250Z,0.30
2022-11-17T08:33:49.374Z,0.30
2022-11-17T08:36:16.380Z,0.40
2022-11-17T08:38:43.786Z,0.40
2022-11-17T08:41:11.077Z,0.40
2022-11-17T08:43:38.268Z,0.40
2022-11-17T08:46:05.722Z,2.00
2022-11-17T08:48:33.764Z,-1.00
2022-11-17T08:51:06.012Z,0.40
2022-11-17T08:53:33.110Z,0.50
2022-11-17T08:56:00.416Z,0.40
2022-11-17T08:58:27.536Z,0.40
2022-11-17T09:00:54.866Z,0.40
2022-11-17T09:03:22.114Z,-0.20
2022-11-17T09:05:49.210Z,0.50
2022-11-17T09:08:44.040Z,0.60
2022-11-17T09:11:06.590Z,0.60
2022-11-17T09:13:34.446Z,-0.70
2022-11-17T09:16:09.151Z,0.60
2022-11-17T09:18:38.404Z,0.60
2022-11-17T09:21:09.481Z,0.60
2022-11-17T09:23:37.384Z,0.60
2022-11-17T09:26:06.782Z,0.70
2022-11-17T09:28:34.324Z,0.70
2022-11-17T09:31:08.458Z,0.60
2022-11-17T09:33:36.322Z,0.60
2022-11-17T09:36:04.153Z,0.50
2022-11-17T09:38:31.353Z,0.50
2022-11-17T09:40:59.862Z,0.40
2022-11-17T09:43:30.313Z,0.40
2022-11-17T09:46:07.690Z,0.40
2022-11-17T09:48:52.159Z,0.30
2022-11-17T09:51:22.525Z,0.30
2022-11-17T09:53:56.715Z,0.30
2022-11-17T09:56:26.180Z,0.20
2022-11-17T09:59:01.575Z,0.20
2022-11-17T10:01:29.003Z,0.20
2022-11-17T10:03:59.211Z,0.10
2022-11-17T10:06:28.906Z,0.10
2022-11-17T10:09:35.720Z,0.10
2022-11-17T10:12:20.398Z,0.10
2022-11-17T10:14:49.734Z,0.10
2022-11-17T10:17:17.163Z,0.10
2022-11-17T10:19:45.449Z,0.10
2022-11-17T10:22:20.917Z,0.20
2022-11-17T10:24:51.308Z,0.20
2022-11-17T10:27:44.114Z,0.20
2022-11-17T10:30:24.548Z,0.30
2022-11-17T10:32:53.932Z,0.50
2022-11-17T10:35:24.031Z,0.50
2022-11-17T10:37:57.053Z,0.70
2022-11-17T10:40:27.274Z,0.80
2022-11-17T10:42:58.319Z,0.90
2022-11-17T10:45:25.621Z,0.90
2022-11-17T10:47:52.684Z,1.00
2022-11-17T10:50:50.884Z,1.10
2022-11-17T10:53:25.807Z,1.20
2022-11-17T10:55:57.056Z,1.30
2022-11-17T10:58:28.040Z,1.40
2022-11-17T11:00:59.032Z,1.50
2022-11-17T11:03:30.816Z,1.60
2022-11-17T11:06:26.898Z,1.80
2022-11-17T11:09:18.222Z,1.90
2022-11-17T11:12:06.733Z,2.00
2022-11-17T11:14:48.995Z,0.50
2022-11-17T11:17:22.441Z,1.90
2022-11-17T11:19:53.880Z,2.30
2022-11-17T11:22:32.660Z,2.50
2022-11-17T11:25:39.566Z,2.50
2022-11-17T11:28:50.121Z,2.50
2022-11-17T11:32:04.105Z,2.90
2022-11-17T11:35:00.244Z,3.10
2022-11-17T11:37:37.765Z,3.10
2022-11-17T11:40:44.763Z,3.10
2022-11-17T11:43:51.616Z,3.10
2022-11-17T11:46:44.034Z,2.60
2022-11-17T11:49:27.436Z,2.50
2022-11-17T11:51:54.702Z,2.50
2022-11-17T11:54:39.415Z,2.60
2022-11-17T11:57:13.705Z,2.90
2022-11-17T11:59:52.216Z,2.90
2022-11-17T12:02:32.043Z,2.80
2022-11-17T12:05:38.947Z,2.60
2022-11-17T12:08:32.441Z,2.60
2022-11-17T12:11:25.632Z,2.90
2022-11-17T12:13:55.409Z,3.10
2022-11-17T12:16:40.271Z,2.80
2022-11-17T12:19:47.006Z,2.80
2022-11-17T12:22:44.531Z,2.70
2022-11-17T12:25:33.512Z,2.60
2022-11-17T12:28:35.988Z,2.60
2022-11-17T12:31:42.821Z,2.90
2022-11-17T12:34:35.476Z,2.70
2022-11-17T12:37:23.415Z,2.70
2022-11-17T12:40:31.953Z,2.70
2022-11-17T12:43:20.052Z,2.80
2022-11-17T12:46:13.722Z,3.00
2022-11-17T12:48:50.830Z,2.80
2022-11-17T12:51:44.498Z,2.70
2022-11-17T12:54:41.282Z,2.90
2022-11-17T12:57:18.037Z,2.90
2022-11-17T13:00:17.915Z,2.90
2022-11-17T13:02:49.341Z,2.50
2022-11-17T13:05:22.410Z,3.00
2022-11-17T13:07:49.804Z,2.70
2022-11-17T13:10:27.992Z,2.20
2022-11-17T13:13:23.813Z,2.30
2022-11-17T13:15:56.044Z,2.40
2022-11-17T13:18:48.955Z,2.20
2022-11-17T13:21:33.272Z,2.20
2022-11-17T13:24:00.655Z,2.20
2022-11-17T13:26:38.414Z,2.20
2022-11-17T13:29:10.041Z,2.10
2022-11-17T13:31:37.309Z,2.20
2022-11-17T13:34:24.162Z,2.10
2022-11-17T13:37:13.763Z,2.00
2022-11-17T13:39:53.287Z,1.90
2022-11-17T13:42:21.386Z,1.80
2022-11-17T13:44:49.129Z,1.70
2022-11-17T13:47:21.216Z,1.60
2022-11-17T13:49:48.378Z,1.50
2022-11-17T13:52:41.997Z,1.50
2022-11-17T13:55:18.785Z,1.50
2022-11-17T13:58:24.554Z,1.50
2022-11-17T14:00:56.201Z,1.40
2022-11-17T14:03:36.894Z,1.40
2022-11-17T14:06:07.798Z,1.40
2022-11-17T14:09:09.569Z,1.30
2022-11-17T14:11:52.890Z,1.30
2022-11-17T14:14:34.295Z,1.30
2022-11-17T14:17:22.308Z,1.20
2022-11-17T14:19:49.521Z,1.10
2022-11-17T14:22:31.500Z,1.10
2022-11-17T14:24:59.016Z,1.10
2022-11-17T14:27:49.158Z,1.00
2022-11-17T14:30:19.462Z,1.00
2022-11-17T14:32:46.553Z,1.00
2022-11-17T14:35:15.246Z,0.90
2022-11-17T14:37:43.270Z,0.90
2022-11-17T14:40:15.301Z,0.80
2022-11-17T14:42:42.552Z,0.80
2022-11-17T14:45:14.340Z,0.70
2022-11-17T14:47:41.886Z,0.70
2022-11-17T14:50:14.867Z,0.60
2022-11-17T14:52:43.230Z,0.60
2022-11-17T14:55:12.213Z,0.60
2022-11-17T14:57:40.138Z,0.50
2022-11-17T15:00:09.701Z,0.50
2022-11-17T15:02:38.182Z,0.50
2022-11-17T15:05:06.075Z,0.50
2022-11-17T15:07:34.021Z,0.50
2022-11-17T15:10:01.133Z,1.40
2022-11-17T15:12:29.889Z,0.50
2022-11-17T15:14:58.207Z,0.50
2022-11-17T15:17:25.839Z,0.50
2022-11-17T15:19:52.933Z,0.40
2022-11-17T15:22:20.263Z,0.40
2022-11-17T15:24:47.459Z,0.40
2022-11-17T15:27:14.679Z,0.40
2022-11-17T15:29:41.774Z,0.40
2022-11-17T15:32:08.743Z,0.40
2022-11-17T15:34:35.850Z,0.40
2022-11-17T15:37:06.535Z,0.40
2022-11-17T15:39:35.194Z,0.40
2022-11-17T15:42:07.819Z,0.50
2022-11-17T15:44:34.910Z,0.50
2022-11-17T15:47:04.631Z,0.50
2022-11-17T15:49:31.659Z,0.50
2022-11-17T15:51:58.736Z,0.60
2022-11-17T15:54:25.871Z,0.70
2022-11-17T15:56:53.081Z,0.80
2022-11-17T15:59:20.401Z,0.90
2022-11-17T16:01:47.795Z,0.90
2022-11-17T16:04:16.130Z,1.00
2022-11-17T16:06:45.485Z,1.00
2022-11-17T16:09:13.228Z,1.00
2022-11-17T16:11:41.060Z,1.10
2022-11-17T16:14:08.398Z,1.10
2022-11-17T16:16:37.345Z,1.10
2022-11-17T16:19:05.240Z,1.10
2022-11-17T16:21:35.152Z,1.20
2022-11-17T16:24:05.524Z,1.30
2022-11-17T16:26:33.453Z,1.30
2022-11-17T16:29:05.483Z,1.40
2022-11-17T16:31:36.833Z,1.40
2022-11-17T16:34:06.520Z,1.40
2022-11-17T16:36:36.931Z,1.50
2022-11-17T16:39:07.332Z,1.50
2022-11-17T16:41:37.076Z,1.60
2022-11-17T16:44:08.608Z,1.60
2022-11-17T16:46:35.831Z,1.60
2022-11-17T16:49:05.426Z,1.60
2022-11-17T16:51:33.344Z,1.70
2022-11-17T16:54:02.998Z,1.70
2022-11-17T16:56:30.092Z,1.60
2022-11-17T16:58:57.192Z,1.70
2022-11-17T17:01:30.313Z,1.70
2022-11-17T17:03:59.541Z,1.80
2022-11-17T17:06:27.273Z,1.80
2022-11-17T17:09:15.752Z,1.60
2022-11-17T17:11:43.214Z,1.80
2022-11-17T17:14:13.720Z,1.80
2022-11-17T17:16:40.962Z,1.80
2022-11-17T17:19:09.857Z,1.70
2022-11-17T17:21:38.058Z,1.80
2022-11-17T17:24:05.927Z,1.80
2022-11-17T17:26:34.679Z,1.80
2022-11-17T17:29:03.034Z,1.80
2022-11-17T17:31:33.501Z,1.80
2022-11-17T17:34:04.491Z,1.90
2022-11-17T17:36:32.001Z,1.90
2022-11-17T17:39:02.179Z,1.90
2022-11-17T17:41:35.017Z,1.90
2022-11-17T17:44:05.288Z,1.90
2022-11-17T17:46:35.702Z,1.90
2022-11-17T17:49:05.779Z,1.90
2022-11-17T17:51:36.093Z,1.90
2022-11-17T17:54:03.173Z,1.90
2022-11-17T17:56:31.290Z,1.90
2022-11-17T17:59:00.892Z,2.00
2022-11-17T18:01:33.321Z,2.00
2022-11-17T18:04:05.239Z,2.00
2022-11-17T18:06:38.975Z,2.00
2022-11-17T18:09:07.450Z,2.00
2022-11-17T18:11:35.846Z,2.00
2022-11-17T18:14:03.400Z,1.90
2022-11-17T18:16:32.663Z,1.80
2022-11-17T18:19:03.224Z,1.60
2022-11-17T18:21:33.749Z,1.60
2022-11-17T18:24:02.095Z,1.50
2022-11-17T18:26:34.270Z,1.50
2022-11-17T18:29:05.794Z,1.50
2022-11-17T18:31:35.694Z,1.50
2022-11-17T18:34:05.453Z,1.50
2022-11-17T18:36:32.673Z,1.50
2022-11-17T18:38:59.830Z,1.50
2022-11-17T18:41:27.740Z,1.50
2022-11-17T18:43:56.696Z,1.50
2022-11-17T18:46:26.688Z,1.40
2022-11-17T18:48:54.178Z,1.40
2022-11-17T18:51:27.212Z,1.40
2022-11-17T18:53:57.594Z,1.40
2022-11-17T18:56:28.235Z,1.50
2022-11-17T18:58:59.396Z,1.50
2022-11-17T19:01:29.229Z,1.50
2022-11-17T19:04:01.107Z,1.50
2022-11-17T19:06:28.444Z,1.50
2022-11-17T19:08:58.313Z,1.50
2022-11-17T19:11:25.586Z,1.50
2022-11-17T19:13:52.797Z,1.50
2022-11-17T19:16:23.015Z,1.50
2022-11-17T19:18:52.349Z,1.50
2022-11-17T19:21:25.936Z,1.50
2022-11-17T19:23:55.352Z,1.90
2022-11-17T19:26:25.752Z,1.40
2022-11-17T19:29:17.574Z,1.40
2022-11-17T19:31:45.690Z,1.40
2022-11-17T19:34:12.922Z,1.40
2022-11-17T19:36:40.184Z,1.30
2022-11-17T19:39:07.476Z,1.30
2022-11-17T19:41:36.937Z,1.30
2022-11-17T19:44:06.717Z,1.20
2022-11-17T19:46:36.301Z,1.20
2022-11-17T19:49:04.718Z,1.20
2022-11-17T19:51:33.794Z,1.20
2022-11-17T19:54:04.323Z,1.20
2022-11-17T19:56:31.893Z,1.20
2022-11-17T19:58:59.273Z,1.20
2022-11-17T20:01:28.892Z,1.10
2022-11-17T20:03:58.200Z,1.10
2022-11-17T20:06:28.010Z,1.10
2022-11-17T20:08:57.595Z,1.10
2022-11-17T20:11:27.058Z,1.00
2022-11-17T20:13:55.038Z,1.00
2022-11-17T20:16:24.814Z,1.00
2022-11-17T20:18:55.289Z,1.00
2022-11-17T20:21:23.056Z,0.90
2022-11-17T20:23:50.167Z,0.90
2022-11-17T20:26:21.049Z,0.80
2022-11-17T20:28:48.172Z,0.80
2022-11-17T20:31:35.442Z,0.80
2022-11-17T20:34:05.395Z,0.80
2022-11-17T20:36:34.268Z,0.80
2022-11-17T20:39:04.116Z,0.80
2022-11-17T20:41:31.546Z,0.70
2022-11-17T20:44:00.263Z,0.70
2022-11-17T20:46:27.752Z,0.80
2022-11-17T20:48:54.848Z,0.80
2022-11-17T20:51:24.129Z,0.80
2022-11-17T20:53:51.660Z,0.70
2022-11-17T20:56:19.307Z,0.70
2022-11-17T20:58:46.785Z,0.70
2022-11-17T21:01:18.184Z,0.70
2022-11-17T21:03:45.931Z,0.60
2022-11-17T21:06:14.116Z,0.60
2022-11-17T21:08:42.390Z,0.50
2022-11-17T21:11:33.118Z,0.60
2022-11-17T21:14:00.700Z,0.60
2022-11-17T21:16:27.968Z,0.60
2022-11-17T21:18:55.214Z,0.60
2022-11-17T21:21:23.854Z,0.60
2022-11-17T21:23:54.286Z,0.50
2022-11-17T21:26:27.955Z,0.50
2022-11-17T21:29:03.155Z,0.40
2022-11-17T21:31:33.210Z,0.40
2022-11-17T21:34:02.510Z,0.40
2022-11-17T21:36:31.383Z,0.30
2022-11-17T21:38:59.652Z,0.20
2022-11-17T21:41:30.160Z,0.20
2022-11-17T21:44:00.147Z,0.20
2022-11-17T21:46:30.018Z,0.20
2022-11-17T21:48:59.781Z,0.10
2022-11-17T21:51:29.390Z,0.10
2022-11-17T21:53:58.536Z,0.00
2022-11-17T21:56:27.624Z,0.00
2022-11-17T21:58:56.197Z,0.00
2022-11-17T22:01:23.839Z,-0.10
2022-11-17T22:03:53.962Z,-0.10
2022-11-17T22:06:23.331Z,0.00
2022-11-17T22:08:54.686Z,0.00
2022-11-17T22:11:40.509Z,0.00
2022-11-17T22:14:09.699Z,0.30
2022-11-17T22:16:39.098Z,0.40
2022-11-17T22:19:06.614Z,0.50
2022-11-17T22:21:34.244Z,0.40
2022-11-17T22:24:01.415Z,0.40
2022-11-17T22:26:28.454Z,0.30
2022-11-17T22:28:56.450Z,0.30
2022-11-17T22:31:24.019Z,0.20
2022-11-17T22:33:51.760Z,0.20
2022-11-17T22:36:21.746Z,0.10
2022-11-17T22:38:51.441Z,0.10
2022-11-17T22:41:21.070Z,0.00
2022-11-17T22:43:50.782Z,0.00
2022-11-17T22:46:18.983Z,0.10
2022-11-17T22:48:46.370Z,0.00
2022-11-17T22:51:36.774Z,0.00
2022-11-17T22:54:05.065Z,0.00
2022-11-17T22:56:32.732Z,0.00
2022-11-17T22:59:00.148Z,0.00
2022-11-17T23:01:27.412Z,0.00
2022-11-17T23:03:54.620Z,0.00
2022-11-17T23:06:24.281Z,0.00
2022-11-17T23:08:55.407Z,-0.10
2022-11-17T23:11:36.602Z,-0.10
2022-11-17T23:14:06.854Z,-0.10
2022-11-17T23:16:33.967Z,0.00
2022-11-17T23:19:00.980Z,-0.10
2022-11-17T23:21:28.028Z,0.00
2022-11-17T23:23:55.320Z,0.00
2022-11-17T23:26:23.702Z,1.80
2022-11-17T23:28:50.822Z,0.00
2022-11-17T23:31:20.724Z,0.00
2022-11-17T23:33:48.454Z,0.10
2022-11-17T23:36:18.751Z,0.00
2022-11-17T23:38:49.099Z,0.00
2022-11-17T23:41:19.680Z,0.10
2022-11-17T23:43:51.252Z,0.10
2022-11-17T23:46:20.373Z,0.20
2022-11-17T23:48:47.993Z,0.20
2022-11-17T23:51:18.311Z,0.20
2022-11-17T23:53:47.026Z,0.20
2022-11-17T23:56:15.488Z,0.20
2022-11-17T23:58:44.340Z,0.30
